Time;durP1;ratioP1;P1;durP2;ratioP2;P2;SDS_P1;SDS_P2;PMS_P1;PMS_P2;Temp;Humidity;BMP_temperature;BMP_pressure;BME280_temperature;BME280_humidity;BME280_pressure;Samples;Min_cycle;Max_cycle;Signal;HPM_P1;HPM_P2
2023/01/06 00:00:28;;;;;;;5.13;2.40;;;11.90;99.90;;;;;;5075689;28;20238;-71
2023/01/06 00:02:54;;;;;;;4.73;2.50;;;12.00;99.90;;;;;;5075617;28;20176;-70
2023/01/06 00:05:19;;;;;;;5.13;2.40;;;12.00;99.90;;;;;;5075817;28;20199;-71
2023/01/06 00:07:51;;;;;;;4.83;2.13;;;12.00;99.90;;;;;;5075731;28;20191;-71
2023/01/06 00:10:17;;;;;;;2.30;1.93;;;12.00;99.90;;;;;;5075734;28;20216;-71
2023/01/06 00:12:47;;;;;;;4.07;2.20;;;12.10;99.90;;;;;;5075616;28;20176;-71
2023/01/06 00:15:14;;;;;;;4.10;2.03;;;12.10;99.90;;;;;;5075573;28;20250;-71
2023/01/06 00:17:40;;;;;;;7.10;2.50;;;12.10;99.90;;;;;;5075267;28;20243;-72
2023/01/06 00:20:06;;;;;;;5.47;1.97;;;12.20;99.90;;;;;;5075483;28;20168;-71
2023/01/06 00:22:32;;;;;;;4.40;2.07;;;12.20;99.90;;;;;;5075764;28;20184;-72
2023/01/06 00:24:57;;;;;;;5.80;1.73;;;12.20;99.90;;;;;;5075648;28;20567;-71
2023/01/06 00:27:23;;;;;;;3.63;1.70;;;12.10;99.90;;;;;;5075457;28;20525;-71
2023/01/06 00:29:49;;;;;;;4.13;1.90;;;12.10;99.90;;;;;;5075083;28;20204;-71
2023/01/06 00:32:16;;;;;;;3.63;1.97;;;12.10;99.90;;;;;;5074044;28;20538;-71
2023/01/06 00:34:41;;;;;;;2.57;1.60;;;12.10;99.90;;;;;;5075425;28;20176;-71
2023/01/06 00:37:07;;;;;;;4.43;1.90;;;12.20;99.90;;;;;;5075282;28;20236;-70
2023/01/06 00:39:32;;;;;;;3.13;1.80;;;12.10;99.90;;;;;;5075119;28;20165;-70
2023/01/06 00:42:04;;;;;;;6.27;1.80;;;12.10;99.90;;;;;;5074820;28;20220;-70
2023/01/06 00:44:30;;;;;;;2.30;1.40;;;12.10;99.90;;;;;;5075083;28;20165;-70
2023/01/06 00:46:56;;;;;;;3.83;1.90;;;12.10;99.90;;;;;;5074874;28;20175;-71
2023/01/06 00:49:22;;;;;;;5.47;1.80;;;12.20;99.90;;;;;;5074854;28;20712;-70
2023/01/06 00:51:48;;;;;;;4.43;1.80;;;12.20;99.90;;;;;;5074947;28;20233;-71
2023/01/06 00:54:14;;;;;;;3.60;1.60;;;12.20;99.90;;;;;;5075038;28;20175;-70
2023/01/06 00:56:42;;;;;;;3.43;1.67;;;12.20;99.90;;;;;;5074799;28;20575;-69
2023/01/06 00:59:08;;;;;;;5.10;1.63;;;12.20;99.90;;;;;;5074725;28;20165;-70
2023/01/06 01:01:35;;;;;;;3.70;1.53;;;12.30;99.90;;;;;;5074542;28;20176;-70
2023/01/06 01:04:01;;;;;;;3.30;1.30;;;12.20;99.90;;;;;;5074765;28;20294;-70
2023/01/06 01:06:27;;;;;;;3.00;1.50;;;12.10;99.90;;;;;;5074585;28;20204;-70
2023/01/06 01:08:57;;;;;;;1.80;1.27;;;12.10;99.90;;;;;;5074612;28;20175;-69
2023/01/06 01:14:08;;;;;;;4.57;1.60;;;12.10;99.90;;;;;;5074688;28;20171;-70
2023/01/06 01:16:34;;;;;;;6.20;1.40;;;12.10;99.90;;;;;;5072705;28;20274;-70
2023/01/06 01:19:00;;;;;;;3.93;1.37;;;12.10;99.90;;;;;;5074474;28;20701;-70
2023/01/06 01:21:25;;;;;;;7.77;1.80;;;12.10;99.90;;;;;;5074300;28;20651;-69
2023/01/06 01:23:51;;;;;;;2.07;1.53;;;12.10;99.90;;;;;;5074420;28;20176;-69
2023/01/06 01:26:16;;;;;;;4.97;1.50;;;12.10;99.90;;;;;;5074184;28;20204;-70
2023/01/06 01:28:43;;;;;;;5.17;1.50;;;12.10;99.90;;;;;;5074196;28;20168;-70
2023/01/06 01:31:08;;;;;;;2.47;1.50;;;12.10;99.90;;;;;;5073866;28;20208;-70
2023/01/06 01:33:35;;;;;;;5.17;1.90;;;12.10;99.90;;;;;;5074107;28;20753;-70
2023/01/06 01:36:08;;;;;;;1.93;1.40;;;12.10;99.90;;;;;;5074250;28;20180;-69
2023/01/06 01:38:34;;;;;;;2.73;1.50;;;12.10;99.90;;;;;;5073770;28;20172;-69
2023/01/06 01:41:00;;;;;;;3.70;1.60;;;12.10;99.90;;;;;;5073972;28;20168;-70
2023/01/06 01:43:46;;;;;;;4.80;1.40;;;12.10;99.90;;;;;;5073688;28;20228;-69
2023/01/06 01:46:15;;;;;;;1.90;1.60;;;12.00;99.90;;;;;;5073449;28;20176;-69
2023/01/06 01:48:41;;;;;;;2.30;1.70;;;12.00;99.90;;;;;;5073655;28;20604;-69
2023/01/06 01:51:09;;;;;;;3.60;1.57;;;12.00;99.90;;;;;;5073278;28;20235;-69
2023/01/06 01:53:41;;;;;;;2.47;1.50;;;12.00;99.90;;;;;;5073810;28;20674;-69
2023/01/06 01:56:11;;;;;;;2.23;1.60;;;12.00;99.90;;;;;;5073750;28;20211;-69
2023/01/06 01:58:43;;;;;;;1.77;1.57;;;12.00;99.90;;;;;;5073667;28;20271;-70
2023/01/06 02:01:11;;;;;;;3.17;1.53;;;11.90;99.90;;;;;;5073616;28;20165;-69
2023/01/06 02:03:38;;;;;;;5.57;1.70;;;11.90;99.90;;;;;;5073628;28;20172;-69
2023/01/06 02:06:09;;;;;;;4.93;1.70;;;11.90;99.90;;;;;;5073722;28;20165;-69
2023/01/06 02:08:43;;;;;;;2.73;1.37;;;11.90;99.90;;;;;;5073329;28;20245;-69
2023/01/06 02:11:09;;;;;;;3.23;1.60;;;11.90;99.90;;;;;;5073514;28;20687;-69
2023/01/06 02:13:37;;;;;;;1.30;1.13;;;11.90;99.90;;;;;;5073115;28;20169;-69
2023/01/06 02:16:17;;;;;;;4.13;1.50;;;11.90;99.90;;;;;;5073186;28;20196;-70
2023/01/06 02:19:24;;;;;;;1.83;1.30;;;11.90;99.90;;;;;;5073521;28;20169;-69
2023/01/06 02:21:50;;;;;;;3.60;1.67;;;11.90;99.90;;;;;;4975753;28;20183;-70
2023/01/06 02:24:34;;;;;;;2.70;1.60;;;11.90;99.90;;;;;;4991818;28;20649;-68
2023/01/06 02:27:11;;;;;;;2.97;1.50;;;11.90;99.90;;;;;;4992079;28;20183;-70
2023/01/06 02:29:51;;;;;;;2.67;1.20;;;11.90;99.90;;;;;;4991561;28;20257;-69
2023/01/06 02:32:29;;;;;;;1.53;1.13;;;11.80;99.90;;;;;;4992097;28;20179;-70
2023/01/06 02:35:16;;;;;;;1.50;1.00;;;11.80;99.90;;;;;;4991803;28;20206;-69
2023/01/06 02:37:41;;;;;;;7.23;1.50;;;11.80;99.90;;;;;;4991890;28;20182;-69
2023/01/06 02:40:12;;;;;;;6.30;1.30;;;11.80;99.90;;;;;;4991753;28;20183;-70
2023/01/06 02:42:44;;;;;;;4.50;1.40;;;11.80;99.90;;;;;;4991043;28;20229;-70
2023/01/06 02:45:24;;;;;;;2.07;1.47;;;11.80;99.90;;;;;;4991628;28;20229;-69
2023/01/06 02:47:50;;;;;;;1.90;1.10;;;11.90;99.90;;;;;;4991760;28;20171;-70
2023/01/06 02:50:27;;;;;;;4.37;1.23;;;11.90;99.90;;;;;;4991579;28;20211;-70
2023/01/06 02:53:10;;;;;;;1.93;1.13;;;11.80;99.90;;;;;;4991843;28;20245;-69
2023/01/06 02:55:43;;;;;;;3.03;1.27;;;11.80;99.90;;;;;;4991635;28;20206;-69
2023/01/06 02:58:23;;;;;;;2.63;1.20;;;11.80;99.90;;;;;;5019712;28;20184;-69
2023/01/06 03:00:56;;;;;;;1.33;1.00;;;11.70;99.90;;;;;;5073202;28;20168;-69
2023/01/06 03:03:25;;;;;;;3.27;0.97;;;11.70;99.90;;;;;;5073282;28;20222;-69
2023/01/06 03:05:55;;;;;;;1.93;1.10;;;11.70;99.90;;;;;;5077148;28;20246;-70
2023/01/06 03:08:26;;;;;;;1.57;1.13;;;11.60;99.90;;;;;;5076927;28;20173;-68
2023/01/06 03:10:53;;;;;;;4.17;1.10;;;11.70;99.90;;;;;;5077014;28;20240;-69
2023/01/06 03:13:38;;;;;;;1.90;1.07;;;11.70;99.90;;;;;;5076701;28;20246;-69
2023/01/06 03:16:05;;;;;;;5.07;1.10;;;11.70;99.90;;;;;;5076728;28;20282;-68
2023/01/06 03:18:31;;;;;;;1.20;0.90;;;11.70;99.90;;;;;;5076720;28;20223;-69
2023/01/06 03:21:01;;;;;;;2.07;1.07;;;11.70;99.90;;;;;;5076561;28;20271;-69
2023/01/06 03:23:27;;;;;;;2.20;1.30;;;11.70;99.90;;;;;;5076832;28;20168;-69
2023/01/06 03:25:53;;;;;;;2.83;1.20;;;11.70;99.90;;;;;;5076335;28;20161;-69
2023/01/06 03:28:18;;;;;;;3.93;1.23;;;11.80;99.90;;;;;;5076594;28;20168;-69
2023/01/06 03:30:54;;;;;;;4.17;1.17;;;11.70;99.90;;;;;;5076584;28;20605;-69
2023/01/06 03:33:34;;;;;;;3.40;1.30;;;11.70;99.90;;;;;;5076563;28;20175;-70
2023/01/06 03:36:18;;;;;;;3.07;1.40;;;11.70;99.90;;;;;;5076607;28;20255;-69
2023/01/06 03:38:47;;;;;;;2.70;1.00;;;11.70;99.90;;;;;;5076409;28;20161;-69
2023/01/06 03:44:27;;;;;;;3.53;1.20;;;11.70;99.90;;;;;;5076256;28;20714;-71
2023/01/06 03:47:04;;;;;;;3.00;1.20;;;11.60;99.90;;;;;;5076231;28;20168;-69
2023/01/06 03:49:33;;;;;;;1.87;1.50;;;11.60;99.90;;;;;;5076067;28;20302;-70
2023/01/06 03:52:28;;;;;;;1.80;1.17;;;11.60;99.90;;;;;;5075972;28;20204;-70
2023/01/06 03:54:59;;;;;;;1.43;1.20;;;11.60;99.90;;;;;;5073586;28;20208;-70
2023/01/06 03:57:35;;;;;;;4.70;1.30;;;11.70;99.90;;;;;;5076133;28;20176;-69
2023/01/06 04:00:12;;;;;;;1.70;1.10;;;11.60;99.90;;;;;;5075944;28;20639;-69
2023/01/06 04:02:39;;;;;;;2.10;1.10;;;11.60;99.90;;;;;;5075981;28;20222;-69
2023/01/06 04:05:16;;;;;;;2.47;0.93;;;11.60;99.90;;;;;;5075813;28;20184;-69
2023/01/06 04:07:42;;;;;;;1.93;1.20;;;11.50;99.90;;;;;;5075774;28;20168;-69
2023/01/06 04:10:09;;;;;;;1.63;1.00;;;11.60;99.90;;;;;;5075355;28;20300;-69
2023/01/06 04:12:38;;;;;;;1.33;0.93;;;11.60;99.90;;;;;;5075541;28;20176;-70
2023/01/06 04:15:13;;;;;;;1.30;1.00;;;11.60;99.90;;;;;;5074984;28;20258;-68
2023/01/06 04:17:40;;;;;;;2.90;0.93;;;11.60;99.90;;;;;;5075518;28;20215;-70
2023/01/06 04:20:08;;;;;;;1.73;1.00;;;11.60;99.90;;;;;;5074077;28;20269;-68
2023/01/06 04:22:34;;;;;;;1.27;1.10;;;11.60;99.90;;;;;;5075214;28;20175;-69
2023/01/06 04:25:00;;;;;;;2.77;1.10;;;11.60;99.90;;;;;;5075042;28;20252;-69
2023/01/06 04:27:25;;;;;;;4.37;1.33;;;11.60;99.90;;;;;;5075371;28;20176;-69
2023/01/06 04:29:51;;;;;;;2.37;0.93;;;11.50;99.90;;;;;;5075157;28;20586;-69
2023/01/06 04:32:17;;;;;;;4.77;1.30;;;11.50;99.90;;;;;;5075068;28;20264;-69
2023/01/06 04:34:42;;;;;;;1.67;1.20;;;11.50;99.90;;;;;;5075085;28;20173;-69
2023/01/06 04:37:09;;;;;;;1.53;1.20;;;11.50;99.90;;;;;;5075122;28;20263;-70
2023/01/06 04:39:35;;;;;;;2.10;1.00;;;11.50;99.90;;;;;;5074944;28;20168;-70
2023/01/06 04:42:01;;;;;;;1.20;1.00;;;11.50;99.90;;;;;;5074499;28;20227;-70
2023/01/06 04:44:26;;;;;;;1.30;0.97;;;11.50;99.90;;;;;;5074942;28;20650;-69
2023/01/06 04:46:52;;;;;;;1.63;0.90;;;11.50;99.90;;;;;;5074416;28;20187;-69
2023/01/06 04:49:17;;;;;;;1.17;1.00;;;11.40;99.90;;;;;;5074542;28;20248;-69
2023/01/06 04:51:43;;;;;;;2.23;1.00;;;11.40;99.90;;;;;;5074492;28;20188;-69
2023/01/06 04:54:09;;;;;;;1.80;0.97;;;11.40;99.90;;;;;;5074363;28;20172;-68
2023/01/06 04:56:34;;;;;;;2.63;0.90;;;11.40;99.90;;;;;;5074318;28;20176;-69
2023/01/06 04:59:00;;;;;;;0.97;0.90;;;11.40;99.90;;;;;;5074446;28;20263;-69
2023/01/06 05:01:25;;;;;;;1.47;1.03;;;11.50;99.90;;;;;;5074422;28;20183;-70
2023/01/06 05:03:51;;;;;;;1.10;0.90;;;11.50;99.90;;;;;;5074125;28;20565;-69
2023/01/06 05:06:18;;;;;;;1.90;1.00;;;11.50;99.90;;;;;;5074322;28;20184;-69
2023/01/06 05:08:44;;;;;;;2.20;1.20;;;11.50;99.90;;;;;;5073637;28;20169;-69
2023/01/06 05:11:20;;;;;;;1.50;1.00;;;11.50;99.90;;;;;;5073768;28;20200;-70
2023/01/06 05:13:45;;;;;;;1.10;1.00;;;11.50;99.90;;;;;;5074227;28;20176;-70
2023/01/06 05:16:15;;;;;;;1.07;0.90;;;11.60;99.90;;;;;;5074266;28;20199;-69
2023/01/06 05:18:41;;;;;;;1.13;1.03;;;11.60;99.90;;;;;;5074170;28;20161;-69
2023/01/06 05:21:06;;;;;;;1.27;1.10;;;11.60;99.90;;;;;;5073925;28;20222;-70
2023/01/06 05:23:32;;;;;;;1.17;0.90;;;11.60;99.90;;;;;;5073503;28;20248;-70
2023/01/06 05:25:58;;;;;;;1.43;1.00;;;11.70;99.90;;;;;;5073437;28;20181;-70
2023/01/06 05:28:24;;;;;;;1.70;1.20;;;11.70;99.90;;;;;;5073515;28;20165;-70
2023/01/06 05:30:49;;;;;;;3.00;1.20;;;11.80;99.90;;;;;;5073364;28;20204;-70
2023/01/06 05:33:15;;;;;;;1.20;1.07;;;11.70;99.90;;;;;;5072378;28;20250;-69
2023/01/06 05:35:40;;;;;;;2.00;1.17;;;11.80;99.90;;;;;;5073756;28;20197;-69
2023/01/06 05:38:06;;;;;;;1.13;1.07;;;11.80;99.90;;;;;;5073297;28;20216;-68
2023/01/06 05:40:33;;;;;;;3.07;1.50;;;11.80;99.90;;;;;;5073619;28;20173;-71
2023/01/06 05:42:59;;;;;;;2.33;1.07;;;11.80;99.90;;;;;;5072853;28;20576;-70
2023/01/06 05:45:25;;;;;;;1.93;1.30;;;11.80;99.90;;;;;;5073516;28;20169;-68
2023/01/06 05:47:51;;;;;;;0.90;0.90;;;11.90;99.90;;;;;;5073256;28;20754;-69
2023/01/06 05:50:17;;;;;;;1.20;1.10;;;11.80;99.90;;;;;;5073254;28;20208;-69
2023/01/06 05:52:43;;;;;;;1.23;1.10;;;11.80;99.90;;;;;;5072840;28;20518;-69
2023/01/06 05:55:09;;;;;;;0.93;0.83;;;11.80;99.90;;;;;;5072903;28;20176;-69
2023/01/06 05:57:35;;;;;;;1.53;0.97;;;11.80;99.90;;;;;;5073370;28;20248;-69
2023/01/06 06:00:04;;;;;;;1.43;1.00;;;11.80;99.90;;;;;;5071623;28;20268;-67
2023/01/06 06:02:30;;;;;;;1.47;0.80;;;11.90;99.90;;;;;;5073214;28;20242;-69
2023/01/06 06:04:55;;;;;;;2.13;1.00;;;11.90;99.90;;;;;;5071933;28;20165;-69
2023/01/06 06:07:21;;;;;;;1.27;1.00;;;11.90;99.90;;;;;;5072847;28;20202;-69
2023/01/06 06:09:46;;;;;;;1.17;0.80;;;11.90;99.90;;;;;;5072809;28;20212;-70
2023/01/06 06:12:12;;;;;;;1.73;1.00;;;11.90;99.90;;;;;;5073063;28;20171;-70
2023/01/06 06:14:38;;;;;;;2.13;1.00;;;11.90;99.90;;;;;;5072759;28;20238;-69
2023/01/06 06:17:03;;;;;;;2.77;1.00;;;11.90;99.90;;;;;;5072756;28;20192;-69
2023/01/06 06:19:29;;;;;;;1.07;0.90;;;11.90;99.90;;;;;;5072492;28;20172;-70
2023/01/06 06:21:55;;;;;;;1.50;0.83;;;11.80;99.90;;;;;;5072990;28;20238;-69
2023/01/06 06:24:20;;;;;;;2.10;0.90;;;11.80;99.90;;;;;;5072800;28;20172;-70
2023/01/06 06:26:46;;;;;;;1.77;0.90;;;11.80;99.90;;;;;;5072119;28;20176;-70
2023/01/06 06:29:11;;;;;;;1.40;1.00;;;11.80;99.90;;;;;;5071530;28;20492;-69
2023/01/06 06:31:37;;;;;;;0.83;0.83;;;11.80;99.90;;;;;;5071596;28;20277;-70
2023/01/06 06:34:04;;;;;;;1.50;1.00;;;11.90;99.90;;;;;;5073053;28;20172;-70
2023/01/06 06:36:30;;;;;;;1.17;0.90;;;11.90;99.90;;;;;;5071990;28;20176;-69
2023/01/06 06:38:57;;;;;;;0.80;0.80;;;11.90;99.90;;;;;;5072615;28;20183;-69
2023/01/06 06:41:23;;;;;;;0.80;0.70;;;11.90;99.90;;;;;;5072565;28;20285;-70
2023/01/06 06:43:50;;;;;;;1.40;0.83;;;11.90;99.90;;;;;;5072382;28;20219;-70
2023/01/06 06:46:16;;;;;;;0.90;0.90;;;11.90;99.90;;;;;;5072842;28;20188;-69
2023/01/06 06:48:42;;;;;;;1.50;0.70;;;11.90;99.90;;;;;;5072247;28;20168;-70
2023/01/06 06:51:15;;;;;;;0.93;0.90;;;11.90;99.90;;;;;;5072038;28;20224;-70
2023/01/06 06:53:42;;;;;;;1.53;0.90;;;11.90;99.90;;;;;;5072256;28;20169;-69
2023/01/06 06:56:09;;;;;;;1.00;0.70;;;12.00;99.90;;;;;;5072516;28;20185;-70
2023/01/06 06:58:35;;;;;;;0.80;0.70;;;12.00;99.90;;;;;;5070699;28;20183;-69
2023/01/06 07:01:05;;;;;;;1.37;1.00;;;12.00;99.90;;;;;;5072187;28;20176;-69
2023/01/06 07:03:31;;;;;;;1.77;0.70;;;12.00;99.90;;;;;;5071872;28;20176;-69
2023/01/06 07:05:58;;;;;;;0.80;0.80;;;11.90;99.90;;;;;;5072233;28;20530;-69
2023/01/06 07:08:23;;;;;;;3.60;0.90;;;12.00;99.90;;;;;;5071543;28;20640;-70
2023/01/06 07:10:50;;;;;;;1.43;0.90;;;12.00;99.90;;;;;;5072062;28;20239;-71
2023/01/06 07:13:16;;;;;;;0.70;0.70;;;12.00;99.90;;;;;;5072042;28;20169;-70
2023/01/06 07:15:42;;;;;;;1.20;0.90;;;11.90;99.90;;;;;;5072523;28;20710;-70
2023/01/06 07:18:08;;;;;;;0.80;0.80;;;11.90;99.90;;;;;;5071868;28;20207;-69
2023/01/06 07:20:35;;;;;;;2.80;0.90;;;11.90;99.90;;;;;;5072190;28;20208;-69
2023/01/06 07:23:01;;;;;;;2.17;0.93;;;11.90;99.90;;;;;;5071939;28;20179;-70
2023/01/06 07:25:27;;;;;;;1.80;1.10;;;11.80;99.90;;;;;;5071737;28;20252;-70
2023/01/06 07:27:54;;;;;;;2.27;1.13;;;11.80;99.90;;;;;;5072275;28;20177;-70
2023/01/06 07:30:21;;;;;;;1.90;1.07;;;11.80;99.90;;;;;;5072197;28;20235;-70
2023/01/06 07:32:47;;;;;;;1.47;1.00;;;11.70;99.90;;;;;;5071644;28;20264;-70
2023/01/06 07:35:12;;;;;;;2.63;1.20;;;11.60;99.90;;;;;;5072018;28;20208;-70
2023/01/06 07:37:38;;;;;;;1.10;1.10;;;11.60;99.90;;;;;;5072166;28;20593;-70
2023/01/06 07:40:04;;;;;;;3.10;1.20;;;11.70;99.90;;;;;;5071806;28;20188;-70
2023/01/06 07:42:30;;;;;;;1.20;1.10;;;11.70;99.90;;;;;;5071386;28;20264;-71
2023/01/06 07:44:55;;;;;;;1.30;1.20;;;11.70;99.90;;;;;;5070540;28;20215;-70
2023/01/06 07:47:21;;;;;;;1.37;1.27;;;11.70;99.90;;;;;;5069653;28;20168;-71
2023/01/06 07:49:46;;;;;;;1.40;1.30;;;11.70;99.90;;;;;;5071990;28;20199;-70
2023/01/06 07:52:12;;;;;;;2.13;1.10;;;11.80;99.90;;;;;;5074148;28;20569;-69
2023/01/06 07:54:37;;;;;;;1.70;1.23;;;11.80;99.90;;;;;;5073636;28;20169;-70
2023/01/06 07:57:03;;;;;;;1.40;1.30;;;11.80;99.90;;;;;;5073595;28;20587;-71
2023/01/06 07:59:29;;;;;;;1.40;1.30;;;11.70;99.90;;;;;;5073182;28;20179;-69
2023/01/06 08:01:54;;;;;;;1.20;1.10;;;11.70;99.90;;;;;;5074234;28;20168;-70
2023/01/06 08:04:20;;;;;;;1.20;1.20;;;11.70;99.90;;;;;;5074375;28;20263;-70
2023/01/06 08:06:45;;;;;;;1.40;1.30;;;11.70;99.90;;;;;;5073791;28;20178;-70
2023/01/06 08:09:11;;;;;;;1.77;1.30;;;11.80;99.90;;;;;;5078535;28;20258;-69
2023/01/06 08:11:36;;;;;;;1.77;1.60;;;11.80;99.90;;;;;;5094301;28;20203;-69
2023/01/06 08:14:02;;;;;;;2.90;1.33;;;11.80;99.90;;;;;;5094041;28;20234;-71
2023/01/06 08:16:27;;;;;;;1.60;1.50;;;11.80;99.90;;;;;;5088148;28;20558;-70
2023/01/06 08:18:53;;;;;;;1.50;1.40;;;11.80;99.90;;;;;;5093003;28;20221;-71
2023/01/06 08:21:19;;;;;;;2.00;1.73;;;11.70;99.90;;;;;;5095018;28;20191;-69
2023/01/06 08:23:44;;;;;;;1.97;1.70;;;11.70;99.90;;;;;;5093453;28;20619;-70
2023/01/06 08:26:16;;;;;;;2.00;1.77;;;11.70;99.90;;;;;;5093491;28;20168;-69
2023/01/06 08:28:44;;;;;;;3.80;1.60;;;11.70;99.90;;;;;;5093342;28;20185;-71
2023/01/06 08:31:12;;;;;;;2.93;1.70;;;11.70;99.90;;;;;;5093549;28;20211;-69
2023/01/06 08:33:38;;;;;;;1.80;1.70;;;11.70;99.90;;;;;;5094642;28;20172;-69
2023/01/06 08:36:06;;;;;;;2.53;1.87;;;11.80;99.90;;;;;;5094135;28;20175;-71
2023/01/06 08:38:33;;;;;;;1.80;1.70;;;11.80;99.90;;;;;;5094516;28;20167;-70
2023/01/06 08:40:59;;;;;;;1.93;1.83;;;11.80;99.90;;;;;;5093106;28;20172;-71
2023/01/06 08:43:27;;;;;;;2.43;2.20;;;11.80;99.90;;;;;;5098591;28;20219;-71
2023/01/06 08:45:59;;;;;;;2.77;1.97;;;11.70;99.90;;;;;;5092335;28;20235;-70
2023/01/06 08:48:25;;;;;;;2.20;1.87;;;11.70;99.90;;;;;;5079301;28;20176;-70
2023/01/06 08:50:51;;;;;;;1.90;1.80;;;11.80;99.90;;;;;;5090873;28;20221;-70
2023/01/06 08:53:16;;;;;;;2.63;2.20;;;11.80;99.90;;;;;;5105453;28;20254;-70
2023/01/06 08:55:42;;;;;;;2.10;2.00;;;11.90;99.90;;;;;;5103305;28;20220;-71
2023/01/06 08:58:08;;;;;;;3.97;2.17;;;11.90;99.90;;;;;;5092130;28;20722;-70
2023/01/06 09:00:36;;;;;;;2.10;2.00;;;11.90;99.90;;;;;;5088630;28;20246;-71
2023/01/06 09:03:01;;;;;;;2.33;1.67;;;12.00;99.90;;;;;;5089910;28;20545;-70
2023/01/06 09:05:27;;;;;;;1.90;1.80;;;12.00;99.90;;;;;;5088886;28;20275;-70
2023/01/06 09:07:53;;;;;;;1.83;1.70;;;12.00;99.90;;;;;;5087716;28;20164;-71
2023/01/06 09:10:20;;;;;;;3.37;1.87;;;12.00;99.90;;;;;;5106192;28;20622;-70
2023/01/06 09:12:46;;;;;;;1.80;1.70;;;12.10;99.90;;;;;;5095072;28;20184;-71
2023/01/06 09:15:12;;;;;;;1.87;1.77;;;12.00;99.90;;;;;;5091508;28;20225;-71
2023/01/06 09:17:37;;;;;;;2.13;2.03;;;11.90;99.90;;;;;;5083895;28;20219;-70
2023/01/06 09:20:03;;;;;;;2.63;2.20;;;11.90;99.90;;;;;;5079078;28;20275;-70
2023/01/06 09:22:29;;;;;;;2.00;1.80;;;11.90;99.90;;;;;;5087366;28;20191;-69
2023/01/06 09:24:55;;;;;;;3.60;2.20;;;12.00;99.90;;;;;;5096698;28;20577;-70
2023/01/06 09:27:21;;;;;;;3.00;2.57;;;12.10;99.90;;;;;;5102342;28;20172;-70
2023/01/06 09:29:46;;;;;;;2.67;2.47;;;12.00;99.90;;;;;;5110427;28;20524;-70
2023/01/06 09:32:12;;;;;;;3.00;2.80;;;12.00;99.90;;;;;;5095005;28;20183;-71
2023/01/06 09:34:37;;;;;;;2.97;2.73;;;12.00;99.90;;;;;;5113074;28;20175;-70
2023/01/06 09:37:03;;;;;;;2.80;2.60;;;12.00;99.90;;;;;;5084194;28;20197;-70
2023/01/06 09:39:29;;;;;;;3.87;3.17;;;11.90;99.90;;;;;;5087627;28;20171;-70
2023/01/06 09:42:19;;;;;;;2.93;2.73;;;11.80;99.90;;;;;;5102016;28;20175;-70
2023/01/06 09:44:44;;;;;;;3.20;3.00;;;11.80;99.90;;;;;;5090038;28;20215;-70
2023/01/06 09:47:12;;;;;;;3.73;3.40;;;11.80;99.90;;;;;;5083344;28;20202;-71
2023/01/06 09:49:50;;;;;;;3.87;3.57;;;11.90;99.90;;;;;;5091770;28;20195;-70
2023/01/06 09:52:28;;;;;;;4.40;4.13;;;11.90;99.90;;;;;;5083149;28;20184;-71
2023/01/06 09:55:06;;;;;;;3.30;3.00;;;11.90;99.90;;;;;;5090666;28;20180;-70
2023/01/06 09:57:36;;;;;;;3.07;2.87;;;11.90;99.90;;;;;;5087337;28;20179;-70
2023/01/06 10:00:22;;;;;;;3.10;2.90;;;11.80;99.90;;;;;;5089826;28;21184;-70
2023/01/06 10:02:48;;;;;;;3.00;2.80;;;11.80;99.90;;;;;;5108056;28;20173;-71
2023/01/06 10:05:25;;;;;;;2.93;2.73;;;11.90;99.90;;;;;;5090674;28;20564;-70
2023/01/06 10:08:15;;;;;;;2.80;2.60;;;11.90;99.90;;;;;;5100772;28;20178;-72
2023/01/06 10:11:22;;;;;;;2.97;2.77;;;11.80;99.90;;;;;;5095158;28;20292;-72
2023/01/06 10:14:04;;;;;;;3.90;3.30;;;11.90;99.90;;;;;;5038129;28;20208;-70
2023/01/06 10:16:48;;;;;;;4.80;2.77;;;11.90;99.90;;;;;;5049162;28;20239;-70
2023/01/06 10:19:39;;;;;;;4.00;3.17;;;11.90;99.90;;;;;;5034239;28;20176;-71
2023/01/06 10:22:29;;;;;;;3.63;3.23;;;11.90;99.90;;;;;;5032602;28;20264;-70
2023/01/06 10:25:31;;;;;;;3.20;3.00;;;11.90;99.90;;;;;;5047156;28;20288;-71
2023/01/06 10:28:20;;;;;;;3.30;3.10;;;12.00;99.90;;;;;;5047491;28;20177;-71
2023/01/06 10:30:52;;;;;;;4.63;3.30;;;12.10;99.90;;;;;;5029413;28;20286;-72
2023/01/06 10:33:21;;;;;;;3.00;2.70;;;12.20;99.90;;;;;;5045381;28;20181;-72
2023/01/06 10:35:47;;;;;;;4.90;2.53;;;12.10;99.90;;;;;;5049479;28;20204;-71
2023/01/06 10:38:13;;;;;;;3.80;3.50;;;12.10;99.90;;;;;;5048007;28;20243;-70
2023/01/06 10:40:39;;;;;;;2.57;2.40;;;12.00;99.90;;;;;;5032225;28;20181;-70
2023/01/06 10:43:10;;;;;;;2.80;2.60;;;12.00;99.90;;;;;;5046467;28;20295;-69
2023/01/06 10:45:46;;;;;;;2.70;2.50;;;12.10;99.90;;;;;;5049559;28;20201;-71
2023/01/06 10:48:15;;;;;;;2.50;2.30;;;12.00;99.90;;;;;;5049531;28;20224;-72
2023/01/06 10:50:41;;;;;;;3.57;2.10;;;12.10;99.90;;;;;;5080140;28;20219;-71
2023/01/06 10:53:10;;;;;;;1.90;1.80;;;12.10;99.90;;;;;;5086288;28;20530;-71
2023/01/06 10:55:53;;;;;;;2.40;2.20;;;12.10;99.90;;;;;;5091420;28;20179;-70
2023/01/06 10:58:39;;;;;;;3.13;2.00;;;12.20;99.90;;;;;;5094222;28;20522;-71
2023/01/06 11:01:45;;;;;;;3.00;2.20;;;12.20;99.90;;;;;;5108765;28;20271;-71
2023/01/06 11:04:12;;;;;;;2.13;1.70;;;12.30;99.90;;;;;;5027741;28;20182;-70
2023/01/06 11:06:59;;;;;;;1.90;1.80;;;12.30;99.90;;;;;;5026729;28;20245;-71
2023/01/06 11:09:41;;;;;;;1.50;1.40;;;12.40;99.90;;;;;;5026341;28;20228;-70
2023/01/06 11:12:25;;;;;;;1.60;1.50;;;12.40;99.90;;;;;;5027412;28;20189;-71
2023/01/06 11:15:00;;;;;;;3.17;1.80;;;12.50;99.90;;;;;;5028002;28;20739;-70
2023/01/06 11:17:28;;;;;;;1.33;1.20;;;12.50;99.90;;;;;;5026365;28;20165;-70
2023/01/06 11:20:17;;;;;;;1.53;1.43;;;12.50;99.90;;;;;;5028098;28;20185;-71
2023/01/06 11:22:43;;;;;;;1.50;1.40;;;12.40;99.90;;;;;;5012961;28;20273;-71
2023/01/06 11:25:29;;;;;;;1.60;1.50;;;12.40;99.90;;;;;;5030173;28;20166;-70
2023/01/06 11:28:18;;;;;;;1.73;1.60;;;12.20;99.90;;;;;;5027318;28;20257;-71
2023/01/06 11:30:48;;;;;;;1.80;1.70;;;12.10;99.90;;;;;;5013190;28;20198;-70
2023/01/06 11:33:20;;;;;;;1.77;1.67;;;12.20;99.90;;;;;;5025651;28;20182;-70
2023/01/06 11:35:47;;;;;;;2.10;2.00;;;12.30;99.90;;;;;;5023983;28;20224;-70
2023/01/06 11:38:15;;;;;;;1.90;1.80;;;12.20;99.90;;;;;;5020881;28;20170;-70
2023/01/06 11:40:43;;;;;;;2.70;2.40;;;12.40;99.90;;;;;;5064266;28;20666;-70
2023/01/06 11:43:14;;;;;;;2.50;2.00;;;12.40;99.90;;;;;;5089752;28;20215;-71
2023/01/06 11:45:54;;;;;;;2.33;2.23;;;12.40;99.90;;;;;;5107172;28;20300;-70
2023/01/06 11:48:24;;;;;;;2.93;2.53;;;12.30;99.90;;;;;;5108904;28;20174;-71
2023/01/06 11:50:58;;;;;;;3.30;2.30;;;12.30;99.90;;;;;;5093964;28;20208;-71
2023/01/06 11:53:24;;;;;;;2.40;2.10;;;12.30;99.90;;;;;;5101022;28;20268;-71
2023/01/06 11:56:16;;;;;;;2.60;2.40;;;12.30;99.90;;;;;;5099368;28;20203;-70
2023/01/06 11:58:48;;;;;;;2.77;2.60;;;12.30;99.90;;;;;;5092763;28;20179;-70
2023/01/06 12:01:42;;;;;;;2.47;2.23;;;12.30;99.90;;;;;;5084209;28;20239;-71
2023/01/06 12:04:17;;;;;;;2.23;2.13;;;12.30;99.90;;;;;;5097523;27;20194;-71
2023/01/06 12:06:44;;;;;;;2.57;2.47;;;12.10;99.90;;;;;;5111335;28;20258;-71
2023/01/06 12:09:29;;;;;;;2.80;2.60;;;12.00;99.90;;;;;;5097118;28;20236;-71
2023/01/06 12:11:57;;;;;;;4.23;3.90;;;12.00;99.90;;;;;;5103370;28;20264;-70
2023/01/06 12:14:44;;;;;;;9.30;8.37;;;12.00;99.90;;;;;;5093422;28;20191;-71
2023/01/06 12:17:38;;;;;;;5.63;4.73;;;12.00;99.90;;;;;;5082428;28;20261;-71
2023/01/06 12:20:26;;;;;;;3.00;2.80;;;12.00;99.90;;;;;;5102807;28;20171;-71
2023/01/06 12:22:59;;;;;;;3.77;3.47;;;12.00;99.90;;;;;;5111201;28;20175;-70
2023/01/06 12:25:46;;;;;;;2.80;2.60;;;12.00;99.90;;;;;;5100934;28;20167;-70
2023/01/06 12:28:14;;;;;;;12.20;10.27;;;12.10;99.90;;;;;;5101132;28;20221;-71
2023/01/06 12:30:52;;;;;;;4.23;3.57;;;12.10;99.90;;;;;;5110250;28;20207;-70
2023/01/06 12:33:30;;;;;;;10.40;9.40;;;12.20;99.90;;;;;;5083855;28;20175;-70
2023/01/06 12:36:01;;;;;;;3.97;3.20;;;12.30;99.90;;;;;;5103714;28;20187;-71
2023/01/06 12:38:37;;;;;;;2.50;2.30;;;12.30;99.90;;;;;;5108330;28;20725;-71
2023/01/06 12:41:16;;;;;;;4.40;4.00;;;12.20;99.90;;;;;;5093568;28;20172;-71
2023/01/06 12:43:48;;;;;;;3.87;3.60;;;12.30;99.90;;;;;;5102509;28;20683;-70
2023/01/06 12:46:25;;;;;;;3.77;3.07;;;12.20;99.90;;;;;;5096111;28;20245;-70
2023/01/06 12:48:57;;;;;;;3.00;2.70;;;12.30;99.90;;;;;;5110412;28;20211;-72
2023/01/06 12:51:45;;;;;;;4.97;2.90;;;12.20;99.90;;;;;;5098713;28;20584;-71
2023/01/06 12:54:19;;;;;;;3.93;3.57;;;12.20;99.90;;;;;;5101584;27;20179;-70
2023/01/06 12:57:03;;;;;;;7.50;6.80;;;12.40;99.90;;;;;;5109022;28;20182;-69
2023/01/06 12:59:47;;;;;;;11.77;10.70;;;12.60;99.90;;;;;;5100203;28;20166;-71
2023/01/06 13:02:30;;;;;;;40.07;36.23;;;12.80;99.90;;;;;;5101231;28;20184;-71
2023/01/06 13:05:21;;;;;;;44.03;40.03;;;13.00;99.90;;;;;;5110277;28;20244;-72
2023/01/06 13:07:56;;;;;;;5.23;4.83;;;13.10;99.90;;;;;;5102117;28;20179;-71